sensor_id;sensor_type;location;lat;lon;timestamp;pressure;altitude;pressure_sealevel;temperature;humidity
43683;BME280;29285;52.128;21.060;2022-07-15T00:01:26;99946.02;;;22.03;39.99
43683;BME280;29285;52.128;21.060;2022-07-15T00:06:29;99945.63;;;22.02;40.01
43683;BME280;29285;52.128;21.060;2022-07-15T00:11:31;99956.63;;;21.90;39.98
43683;BME280;29285;52.128;21.060;2022-07-15T00:16:34;99957.53;;;21.83;40.01
43683;BME280;29285;52.128;21.060;2022-07-15T00:21:36;99965.38;;;21.85;40.17
43683;BME280;29285;52.128;21.060;2022-07-15T00:26:37;99967.27;;;21.82;40.21
43683;BME280;29285;52.128;21.060;2022-07-15T00:31:38;99970.84;;;21.68;40.12
43683;BME280;29285;52.128;21.060;2022-07-15T00:36:40;99969.98;;;21.75;40.37
43683;BME280;29285;52.128;21.060;2022-07-15T00:41:42;99976.93;;;21.63;40.36
43683;BME280;29285;52.128;21.060;2022-07-15T00:46:44;99980.80;;;21.65;40.50
43683;BME280;29285;52.128;21.060;2022-07-15T00:51:54;99988.23;;;21.52;40.45
43683;BME280;29285;52.128;21.060;2022-07-15T00:56:57;99982.25;;;21.56;40.64
43683;BME280;29285;52.128;21.060;2022-07-15T01:01:58;99977.98;;;21.48;40.65
43683;BME280;29285;52.128;21.060;2022-07-15T01:07:00;99973.23;;;21.33;40.66
43683;BME280;29285;52.128;21.060;2022-07-15T01:12:01;99966.08;;;21.27;40.77
43683;BME280;29285;52.128;21.060;2022-07-15T01:17:11;99969.50;;;21.22;40.93
43683;BME280;29285;52.128;21.060;2022-07-15T01:22:12;99973.30;;;21.18;41.06
43683;BME280;29285;52.128;21.060;2022-07-15T01:27:14;99969.28;;;21.12;41.15
43683;BME280;29285;52.128;21.060;2022-07-15T01:32:15;99967.62;;;21.24;41.46
43683;BME280;29285;52.128;21.060;2022-07-15T01:37:17;99962.72;;;21.18;41.42
43683;BME280;29285;52.128;21.060;2022-07-15T01:42:19;99954.91;;;21.16;41.53
43683;BME280;29285;52.128;21.060;2022-07-15T01:47:20;99958.14;;;21.27;41.77
43683;BME280;29285;52.128;21.060;2022-07-15T01:52:21;99954.77;;;21.25;41.82
43683;BME280;29285;52.128;21.060;2022-07-15T01:57:22;99960.30;;;21.15;41.75
43683;BME280;29285;52.128;21.060;2022-07-15T02:02:24;99959.12;;;21.06;41.77
43683;BME280;29285;52.128;21.060;2022-07-15T02:07:25;99967.70;;;21.10;41.96
43683;BME280;29285;52.128;21.060;2022-07-15T02:12:27;99977.96;;;20.94;41.88
43683;BME280;29285;52.128;21.060;2022-07-15T02:17:28;99982.13;;;20.76;41.85
43683;BME280;29285;52.128;21.060;2022-07-15T02:22:29;99982.75;;;20.60;41.89
43683;BME280;29285;52.128;21.060;2022-07-15T02:27:30;99978.48;;;20.64;42.23
43683;BME280;29285;52.128;21.060;2022-07-15T02:32:31;99987.36;;;20.71;42.43
43683;BME280;29285;52.128;21.060;2022-07-15T02:37:33;99993.48;;;20.71;42.51
43683;BME280;29285;52.128;21.060;2022-07-15T02:42:34;99992.74;;;20.69;42.50
43683;BME280;29285;52.128;21.060;2022-07-15T02:47:35;99993.78;;;20.67;42.62
43683;BME280;29285;52.128;21.060;2022-07-15T02:52:37;100003.80;;;20.61;42.60
43683;BME280;29285;52.128;21.060;2022-07-15T02:57:38;100013.94;;;20.26;42.37
43683;BME280;29285;52.128;21.060;2022-07-15T03:02:40;100013.53;;;19.88;42.29
43683;BME280;29285;52.128;21.060;2022-07-15T03:07:43;100015.20;;;19.67;42.50
43683;BME280;29285;52.128;21.060;2022-07-15T03:12:45;100012.89;;;19.54;42.71
43683;BME280;29285;52.128;21.060;2022-07-15T03:17:46;100015.58;;;19.38;42.87
43683;BME280;29285;52.128;21.060;2022-07-15T03:22:47;100027.20;;;19.19;43.07
43683;BME280;29285;52.128;21.060;2022-07-15T03:27:48;100027.06;;;19.06;43.32
43683;BME280;29285;52.128;21.060;2022-07-15T03:32:50;100038.25;;;18.94;43.56
43683;BME280;29285;52.128;21.060;2022-07-15T03:37:51;100039.03;;;18.96;43.86
43683;BME280;29285;52.128;21.060;2022-07-15T03:42:52;100040.73;;;18.97;44.13
43683;BME280;29285;52.128;21.060;2022-07-15T03:47:53;100043.36;;;18.97;44.28
43683;BME280;29285;52.128;21.060;2022-07-15T03:52:54;100049.60;;;19.03;44.51
43683;BME280;29285;52.128;21.060;2022-07-15T03:57:55;100045.52;;;18.97;44.61
43683;BME280;29285;52.128;21.060;2022-07-15T04:02:57;100043.66;;;18.99;44.79
43683;BME280;29285;52.128;21.060;2022-07-15T04:07:58;100038.28;;;19.10;45.04
43683;BME280;29285;52.128;21.060;2022-07-15T04:12:59;100048.34;;;19.10;45.22
43683;BME280;29285;52.128;21.060;2022-07-15T04:18:00;100052.64;;;18.88;45.15
43683;BME280;29285;52.128;21.060;2022-07-15T04:23:02;100043.30;;;18.89;45.45
43683;BME280;29285;52.128;21.060;2022-07-15T04:28:03;100041.72;;;19.19;45.89
43683;BME280;29285;52.128;21.060;2022-07-15T04:33:06;100054.30;;;19.61;46.36
43683;BME280;29285;52.128;21.060;2022-07-15T04:38:07;100052.04;;;20.00;46.68
43683;BME280;29285;52.128;21.060;2022-07-15T04:43:09;100055.35;;;20.18;46.63
43683;BME280;29285;52.128;21.060;2022-07-15T04:48:10;100064.13;;;20.40;46.70
43683;BME280;29285;52.128;21.060;2022-07-15T04:53:29;100068.19;;;20.39;46.51
43683;BME280;29285;52.128;21.060;2022-07-15T04:58:30;100061.88;;;20.48;46.48
43683;BME280;29285;52.128;21.060;2022-07-15T05:03:32;100060.23;;;20.68;46.55
43683;BME280;29285;52.128;21.060;2022-07-15T05:08:33;100071.53;;;20.84;46.56
43683;BME280;29285;52.128;21.060;2022-07-15T05:13:36;100075.05;;;20.99;46.54
43683;BME280;29285;52.128;21.060;2022-07-15T05:18:38;100080.72;;;20.71;46.01
43683;BME280;29285;52.128;21.060;2022-07-15T05:23:40;100086.22;;;20.39;45.63
43683;BME280;29285;52.128;21.060;2022-07-15T05:28:42;100093.09;;;20.34;45.66
43683;BME280;29285;52.128;21.060;2022-07-15T05:33:43;100095.47;;;20.17;45.57
43683;BME280;29285;52.128;21.060;2022-07-15T05:38:44;100106.78;;;20.12;45.48
43683;BME280;29285;52.128;21.060;2022-07-15T05:43:46;100113.09;;;20.17;45.51
43683;BME280;29285;52.128;21.060;2022-07-15T05:48:47;100119.41;;;20.14;45.37
43683;BME280;29285;52.128;21.060;2022-07-15T05:53:48;100134.39;;;19.83;44.96
43683;BME280;29285;52.128;21.060;2022-07-15T05:58:49;100131.48;;;19.57;44.69
43683;BME280;29285;52.128;21.060;2022-07-15T06:03:51;100135.39;;;19.50;44.70
43683;BME280;29285;52.128;21.060;2022-07-15T06:08:52;100129.36;;;19.48;44.65
43683;BME280;29285;52.128;21.060;2022-07-15T06:13:53;100132.65;;;19.67;44.77
43683;BME280;29285;52.128;21.060;2022-07-15T06:18:54;100136.01;;;19.86;44.86
43683;BME280;29285;52.128;21.060;2022-07-15T06:23:56;100149.88;;;19.96;44.87
43683;BME280;29285;52.128;21.060;2022-07-15T06:28:57;100159.84;;;19.77;44.67
43683;BME280;29285;52.128;21.060;2022-07-15T06:33:58;100158.53;;;19.61;44.55
43683;BME280;29285;52.128;21.060;2022-07-15T06:38:59;100173.56;;;19.67;44.71
43683;BME280;29285;52.128;21.060;2022-07-15T06:44:01;100189.85;;;19.67;44.74
43683;BME280;29285;52.128;21.060;2022-07-15T06:49:02;100178.20;;;19.55;44.67
43683;BME280;29285;52.128;21.060;2022-07-15T06:54:03;100182.38;;;19.59;44.89
43683;BME280;29285;52.128;21.060;2022-07-15T06:59:05;100190.27;;;19.52;44.77
43683;BME280;29285;52.128;21.060;2022-07-15T07:04:06;100183.17;;;19.52;44.86
43683;BME280;29285;52.128;21.060;2022-07-15T07:09:07;100185.39;;;20.00;45.32
43683;BME280;29285;52.128;21.060;2022-07-15T07:14:09;100182.02;;;20.05;45.32
43683;BME280;29285;52.128;21.060;2022-07-15T07:19:10;100186.34;;;19.99;45.27
43683;BME280;29285;52.128;21.060;2022-07-15T07:24:12;100184.36;;;19.86;45.27
43683;BME280;29285;52.128;21.060;2022-07-15T07:29:13;100197.76;;;19.83;45.31
43683;BME280;29285;52.128;21.060;2022-07-15T07:34:16;100194.24;;;19.59;45.30
43683;BME280;29285;52.128;21.060;2022-07-15T07:39:18;100196.08;;;19.50;45.43
43683;BME280;29285;52.128;21.060;2022-07-15T07:44:20;100191.45;;;19.62;45.74
43683;BME280;29285;52.128;21.060;2022-07-15T07:49:21;100193.60;;;19.86;45.98
43683;BME280;29285;52.128;21.060;2022-07-15T07:54:23;100202.39;;;19.87;45.91
43683;BME280;29285;52.128;21.060;2022-07-15T07:59:24;100210.32;;;19.94;45.97
43683;BME280;29285;52.128;21.060;2022-07-15T08:04:25;100218.29;;;19.78;45.92
43683;BME280;29285;52.128;21.060;2022-07-15T08:09:26;100204.53;;;19.64;45.91
43683;BME280;29285;52.128;21.060;2022-07-15T08:14:27;100220.73;;;19.81;46.09
43683;BME280;29285;52.128;21.060;2022-07-15T08:19:29;100222.17;;;19.79;46.18
43683;BME280;29285;52.128;21.060;2022-07-15T08:24:30;100225.88;;;19.91;46.29
43683;BME280;29285;52.128;21.060;2022-07-15T08:29:31;100229.83;;;19.91;46.41
43683;BME280;29285;52.128;21.060;2022-07-15T08:34:33;100239.05;;;19.84;46.43
43683;BME280;29285;52.128;21.060;2022-07-15T08:39:34;100259.85;;;19.74;46.47
43683;BME280;29285;52.128;21.060;2022-07-15T08:44:36;100245.44;;;19.64;46.48
43683;BME280;29285;52.128;21.060;2022-07-15T08:49:39;100255.24;;;19.62;46.56
43683;BME280;29285;52.128;21.060;2022-07-15T08:54:41;100257.25;;;19.49;46.51
43683;BME280;29285;52.128;21.060;2022-07-15T08:59:42;100269.12;;;19.49;46.40
43683;BME280;29285;52.128;21.060;2022-07-15T09:15:53;100264.19;;;19.75;45.78
43683;BME280;29285;52.128;21.060;2022-07-15T09:20:56;100256.70;;;20.00;45.59
43683;BME280;29285;52.128;21.060;2022-07-15T09:26:21;100257.99;;;20.16;45.17
43683;BME280;29285;52.128;21.060;2022-07-15T09:31:07;100266.36;;;20.08;44.87
43683;BME280;29285;52.128;21.060;2022-07-15T09:36:30;100275.07;;;19.85;44.46
43683;BME280;29285;52.128;21.060;2022-07-15T09:43:25;100267.83;;;19.97;44.15
43683;BME280;29285;52.128;21.060;2022-07-15T09:48:27;100267.34;;;19.98;43.89
43683;BME280;29285;52.128;21.060;2022-07-15T09:53:29;100277.74;;;20.01;43.64
43683;BME280;29285;52.128;21.060;2022-07-15T09:58:38;100287.11;;;20.07;43.45
43683;BME280;29285;52.128;21.060;2022-07-15T10:03:41;100295.22;;;20.11;43.27
43683;BME280;29285;52.128;21.060;2022-07-15T10:08:45;100280.86;;;19.92;42.97
43683;BME280;29285;52.128;21.060;2022-07-15T10:14:05;100279.89;;;20.02;42.88
43683;BME280;29285;52.128;21.060;2022-07-15T10:36:18;100283.52;;;20.31;42.19
43683;BME280;29285;52.128;21.060;2022-07-15T10:41:19;100296.12;;;20.49;41.97
43683;BME280;29285;52.128;21.060;2022-07-15T10:46:25;100299.36;;;20.55;41.67
43683;BME280;29285;52.128;21.060;2022-07-15T10:56:44;100303.64;;;20.41;41.23
43683;BME280;29285;52.128;21.060;2022-07-15T11:02:09;100293.53;;;20.64;41.29
43683;BME280;29285;52.128;21.060;2022-07-15T11:12:14;100322.70;;;20.93;40.90
43683;BME280;29285;52.128;21.060;2022-07-15T11:17:19;100309.77;;;20.72;40.55
43683;BME280;29285;52.128;21.060;2022-07-15T11:22:24;100321.73;;;20.56;40.34
43683;BME280;29285;52.128;21.060;2022-07-15T11:27:27;100302.41;;;20.77;40.39
43683;BME280;29285;52.128;21.060;2022-07-15T11:32:29;100321.78;;;20.78;40.20
43683;BME280;29285;52.128;21.060;2022-07-15T11:37:35;100325.34;;;20.70;39.93
43683;BME280;29285;52.128;21.060;2022-07-15T11:42:37;100307.53;;;20.73;39.83
43683;BME280;29285;52.128;21.060;2022-07-15T11:47:57;100320.08;;;20.46;39.66
43683;BME280;29285;52.128;21.060;2022-07-15T11:52:58;100313.52;;;20.61;39.67
43683;BME280;29285;52.128;21.060;2022-07-15T11:58:00;100330.91;;;20.88;39.74
43683;BME280;29285;52.128;21.060;2022-07-15T12:03:10;100324.52;;;20.76;39.44
43683;BME280;29285;52.128;21.060;2022-07-15T12:08:11;100311.27;;;21.00;39.28
43683;BME280;29285;52.128;21.060;2022-07-15T12:13:12;100343.87;;;21.00;39.09
43683;BME280;29285;52.128;21.060;2022-07-15T12:18:13;100342.52;;;20.86;38.76
43683;BME280;29285;52.128;21.060;2022-07-15T12:23:16;100339.87;;;20.86;38.55
43683;BME280;29285;52.128;21.060;2022-07-15T12:28:32;100332.36;;;21.09;38.45
43683;BME280;29285;52.128;21.060;2022-07-15T12:33:35;100339.73;;;21.25;38.09
43683;BME280;29285;52.128;21.060;2022-07-15T12:38:36;100328.87;;;21.52;37.84
43683;BME280;29285;52.128;21.060;2022-07-15T12:43:53;100342.11;;;21.37;37.63
43683;BME280;29285;52.128;21.060;2022-07-15T12:48:58;100341.41;;;21.63;37.52
43683;BME280;29285;52.128;21.060;2022-07-15T12:54:03;100363.67;;;21.82;37.35
43683;BME280;29285;52.128;21.060;2022-07-15T12:59:06;100344.91;;;21.85;36.87
43683;BME280;29285;52.128;21.060;2022-07-15T13:04:07;100345.63;;;22.09;36.71
43683;BME280;29285;52.128;21.060;2022-07-15T13:09:08;100337.31;;;22.01;36.12
43683;BME280;29285;52.128;21.060;2022-07-15T13:14:09;100357.78;;;22.19;35.89
43683;BME280;29285;52.128;21.060;2022-07-15T13:19:10;100354.60;;;21.72;35.49
43683;BME280;29285;52.128;21.060;2022-07-15T13:24:12;100354.86;;;21.31;35.39
43683;BME280;29285;52.128;21.060;2022-07-15T13:29:13;100370.77;;;20.93;35.39
43683;BME280;29285;52.128;21.060;2022-07-15T13:34:14;100376.72;;;20.89;35.56
43683;BME280;29285;52.128;21.060;2022-07-15T13:39:15;100363.36;;;21.14;35.70
43683;BME280;29285;52.128;21.060;2022-07-15T13:44:17;100385.87;;;21.50;35.69
43683;BME280;29285;52.128;21.060;2022-07-15T13:49:18;100377.57;;;21.71;35.43
43683;BME280;29285;52.128;21.060;2022-07-15T13:54:19;100374.48;;;21.99;35.32
43683;BME280;29285;52.128;21.060;2022-07-15T13:59:20;100366.22;;;21.76;35.05
43683;BME280;29285;52.128;21.060;2022-07-15T14:04:21;100387.09;;;22.03;35.04
43683;BME280;29285;52.128;21.060;2022-07-15T14:09:23;100370.89;;;22.07;34.86
43683;BME280;29285;52.128;21.060;2022-07-15T14:14:24;100383.51;;;22.31;34.78
43683;BME280;29285;52.128;21.060;2022-07-15T14:19:26;100376.83;;;22.46;34.65
43683;BME280;29285;52.128;21.060;2022-07-15T14:24:27;100403.33;;;22.53;34.42
43683;BME280;29285;52.128;21.060;2022-07-15T14:29:29;100370.32;;;22.65;34.31
43683;BME280;29285;52.128;21.060;2022-07-15T14:34:30;100378.97;;;22.81;34.15
43683;BME280;29285;52.128;21.060;2022-07-15T14:39:31;100405.37;;;23.03;34.10
43683;BME280;29285;52.128;21.060;2022-07-15T14:44:32;100394.38;;;22.89;33.83
43683;BME280;29285;52.128;21.060;2022-07-15T14:49:33;100385.20;;;23.00;33.78
43683;BME280;29285;52.128;21.060;2022-07-15T14:54:34;100395.17;;;22.49;33.50
43683;BME280;29285;52.128;21.060;2022-07-15T14:59:35;100396.52;;;22.56;33.56
43683;BME280;29285;52.128;21.060;2022-07-15T15:04:37;100406.50;;;22.86;33.78
43683;BME280;29285;52.128;21.060;2022-07-15T15:09:39;100414.32;;;22.40;33.56
43683;BME280;29285;52.128;21.060;2022-07-15T15:14:40;100406.50;;;22.31;33.65
43683;BME280;29285;52.128;21.060;2022-07-15T15:19:41;100412.97;;;22.61;33.81
43683;BME280;29285;52.128;21.060;2022-07-15T15:24:42;100412.19;;;22.67;33.79
43683;BME280;29285;52.128;21.060;2022-07-15T15:29:43;100419.89;;;22.97;33.87
43683;BME280;29285;52.128;21.060;2022-07-15T15:34:44;100426.95;;;23.24;33.85
43683;BME280;29285;52.128;21.060;2022-07-15T15:39:46;100429.42;;;23.07;33.39
43683;BME280;29285;52.128;21.060;2022-07-15T15:44:47;100413.08;;;23.13;33.28
43683;BME280;29285;52.128;21.060;2022-07-15T15:49:48;100420.94;;;23.15;33.05
43683;BME280;29285;52.128;21.060;2022-07-15T15:54:49;100417.06;;;23.34;33.06
43683;BME280;29285;52.128;21.060;2022-07-15T15:59:51;100422.77;;;23.40;32.89
43683;BME280;29285;52.128;21.060;2022-07-15T16:04:52;100429.11;;;23.25;32.65
43683;BME280;29285;52.128;21.060;2022-07-15T16:09:54;100422.64;;;23.49;32.64
43683;BME280;29285;52.128;21.060;2022-07-15T16:14:56;100410.61;;;23.70;32.59
43683;BME280;29285;52.128;21.060;2022-07-15T16:19:57;100417.06;;;23.26;32.32
43683;BME280;29285;52.128;21.060;2022-07-15T16:24:58;100427.66;;;23.00;32.25
43683;BME280;29285;52.128;21.060;2022-07-15T16:29:59;100416.06;;;23.22;32.46
43683;BME280;29285;52.128;21.060;2022-07-15T16:35:02;100401.86;;;23.49;32.51
43683;BME280;29285;52.128;21.060;2022-07-15T16:40:05;100413.07;;;23.60;32.19
43683;BME280;29285;52.128;21.060;2022-07-15T16:45:07;100408.60;;;23.47;32.04
43683;BME280;29285;52.128;21.060;2022-07-15T16:50:10;100419.33;;;22.99;31.82
43683;BME280;29285;52.128;21.060;2022-07-15T16:55:11;100418.33;;;23.21;31.96
43683;BME280;29285;52.128;21.060;2022-07-15T17:00:13;100416.10;;;23.48;32.01
43683;BME280;29285;52.128;21.060;2022-07-15T17:05:14;100421.20;;;23.18;31.89
43683;BME280;29285;52.128;21.060;2022-07-15T17:10:16;100410.26;;;22.76;31.88
43683;BME280;29285;52.128;21.060;2022-07-15T17:15:17;100417.02;;;22.87;32.08
43683;BME280;29285;52.128;21.060;2022-07-15T17:20:18;100420.61;;;23.20;32.28
43683;BME280;29285;52.128;21.060;2022-07-15T17:25:19;100427.58;;;22.95;32.17
43683;BME280;29285;52.128;21.060;2022-07-15T17:30:20;100430.50;;;23.18;32.36
43683;BME280;29285;52.128;21.060;2022-07-15T17:35:22;100417.96;;;23.40;32.45
43683;BME280;29285;52.128;21.060;2022-07-15T17:40:23;100422.31;;;23.41;32.45
43683;BME280;29285;52.128;21.060;2022-07-15T17:45:24;100422.47;;;23.32;32.35
43683;BME280;29285;52.128;21.060;2022-07-15T17:50:26;100418.64;;;23.03;32.36
43683;BME280;29285;52.128;21.060;2022-07-15T17:55:27;100417.15;;;22.51;32.30
43683;BME280;29285;52.128;21.060;2022-07-15T18:00:29;100427.08;;;22.13;32.47
43683;BME280;29285;52.128;21.060;2022-07-15T18:05:30;100428.43;;;21.84;32.67
43683;BME280;29285;52.128;21.060;2022-07-15T18:10:32;100434.36;;;21.43;32.85
43683;BME280;29285;52.128;21.060;2022-07-15T18:15:33;100428.84;;;21.18;33.06
43683;BME280;29285;52.128;21.060;2022-07-15T18:20:34;100432.17;;;20.91;33.30
43683;BME280;29285;52.128;21.060;2022-07-15T18:25:35;100436.57;;;20.67;33.56
43683;BME280;29285;52.128;21.060;2022-07-15T18:30:37;100439.59;;;20.52;33.87
43683;BME280;29285;52.128;21.060;2022-07-15T18:35:38;100444.13;;;20.33;34.11
43683;BME280;29285;52.128;21.060;2022-07-15T18:40:39;100449.36;;;20.10;34.34
43683;BME280;29285;52.128;21.060;2022-07-15T18:45:40;100443.48;;;19.96;34.65
43683;BME280;29285;52.128;21.060;2022-07-15T18:50:41;100458.80;;;19.89;34.94
43683;BME280;29285;52.128;21.060;2022-07-15T18:55:43;100460.80;;;19.93;35.33
43683;BME280;29285;52.128;21.060;2022-07-15T19:00:44;100469.59;;;19.93;35.60
43683;BME280;29285;52.128;21.060;2022-07-15T19:05:47;100474.44;;;19.76;35.74
43683;BME280;29285;52.128;21.060;2022-07-15T19:10:48;100483.70;;;19.67;35.98
43683;BME280;29285;52.128;21.060;2022-07-15T19:15:50;100486.52;;;19.47;36.18
43683;BME280;29285;52.128;21.060;2022-07-15T19:20:54;100484.66;;;19.40;36.46
43683;BME280;29285;52.128;21.060;2022-07-15T19:25:56;100495.36;;;19.19;36.66
43683;BME280;29285;52.128;21.060;2022-07-15T19:30:57;100489.36;;;19.07;36.93
43683;BME280;29285;52.128;21.060;2022-07-15T19:35:59;100487.23;;;18.96;37.18
43683;BME280;29285;52.128;21.060;2022-07-15T19:41:01;100489.13;;;18.83;37.42
43683;BME280;29285;52.128;21.060;2022-07-15T19:46:03;100496.12;;;18.56;37.60
